PWSweather.com
Personal Weather Stations
Station Observations
KTXPLANO60
Highlands Of Russell Park, Plano, TX 75025

Highlands Of Russell ParkPlano, TX 75025

Lat: 33.10431671, Lon: -96.75176239

Elevation: 761

Station Type: Davis Wireless VP2 Plus

http://www.planoweather.com

Latest ConditionsUpdated 8:30:01 PM CDT Sunday, Aug 19, 2018
Currently Today's Max Today's Min Today's Average
Temperature 89.0°F31.7°C 94.1°F34.5°C 73.2°F22.9°C 83.2°F28.4°C
Dew Point 73.8°F23.2°C 75.4°F24.1°C 70.1°F21.2°C 72.9°F22.7°C
Winds 2.3 mph SE3.7 kmh SE 9.2 mph -14.8 kmh - - 4.8 mph 7.7 kmh
Wind Gusts 4.6 mph7.4 kmh 13.8 mph22.2 kmh - -
Humidity 61% 91% 51% 73%
Pressure 29.75 in1007.5 mb 29.82 in1009.8 mb 29.72 in1006.4 mb -
Hour Temp Dew Point Humidity Winds Wind Gusts Pressure Precip Precip Rate Daily Precip Total
08:30 PM 89.0°F31.7°C 73.8°F23.2°C 61% 2.3 mph SE3.7 kmh SE 4.6 mph7.4 kmh 29.75 in1007.5 mb - 0.00 in0.0 mm 0.00 in0.0 mm
08:20 PM 89.5°F31.9°C 73.3°F22.9°C 59% 3.5 mph SE5.6 kmh SE 6.9 mph11.1 kmh 29.75 in1007.5 mb - 0.00 in0.0 mm 0.00 in0.0 mm
08:10 PM 90.0°F32.2°C 73.2°F22.9°C 58% 3.5 mph S5.6 kmh S 3.5 mph5.6 kmh 29.75 in1007.5 mb - 0.00 in0.0 mm 0.00 in0.0 mm
08:00 PM 90.5°F32.5°C 73.2°F22.9°C 57% 6.9 mph SSE11.1 kmh SSE 8.1 mph13.0 kmh 29.75 in1007.5 mb - 0.00 in0.0 mm 0.00 in0.0 mm
07:50 PM 90.8°F32.7°C 72.9°F22.7°C 56% 5.8 mph SSE9.3 kmh SSE 6.9 mph11.1 kmh 29.75 in1007.5 mb - 0.00 in0.0 mm 0.00 in0.0 mm
07:40 PM 91.1°F32.8°C 73.2°F22.9°C 56% 3.5 mph S5.6 kmh S 3.5 mph5.6 kmh 29.75 in1007.5 mb - 0.00 in0.0 mm 0.00 in0.0 mm
07:30 PM 91.4°F33.0°C 73.0°F22.8°C 55% 2.3 mph S3.7 kmh S 3.5 mph5.6 kmh 29.74 in1007.1 mb - 0.00 in0.0 mm 0.00 in0.0 mm
07:20 PM 91.6°F33.1°C 72.6°F22.6°C 54% 4.6 mph SSE7.4 kmh SSE 4.6 mph7.4 kmh 29.74 in1007.1 mb - 0.00 in0.0 mm 0.00 in0.0 mm
07:10 PM 91.9°F33.3°C 72.8°F22.7°C 54% 4.6 mph S7.4 kmh S 5.8 mph9.3 kmh 29.74 in1007.1 mb - 0.00 in0.0 mm 0.00 in0.0 mm
07:00 PM 92.0°F33.3°C 72.4°F22.4°C 53% 3.5 mph S5.6 kmh S 4.6 mph7.4 kmh 29.74 in1007.1 mb - 0.00 in0.0 mm 0.00 in0.0 mm
06:50 PM 92.1°F33.4°C 72.0°F22.2°C 52% 3.5 mph S5.6 kmh S 6.9 mph11.1 kmh 29.73 in1006.8 mb - 0.00 in0.0 mm 0.00 in0.0 mm
06:40 PM 92.3°F33.5°C 72.7°F22.6°C 53% 6.9 mph S11.1 kmh S 10.4 mph16.7 kmh 29.73 in1006.8 mb - 0.00 in0.0 mm 0.00 in0.0 mm
06:30 PM 92.2°F33.4°C 74.8°F23.8°C 57% 2.3 mph SW3.7 kmh SW 3.5 mph5.6 kmh 29.72 in1006.4 mb - 0.00 in0.0 mm 0.00 in0.0 mm
06:20 PM 92.3°F33.5°C 74.3°F23.5°C 56% 6.9 mph SSW11.1 kmh SSW 10.4 mph16.7 kmh 29.72 in1006.4 mb - 0.00 in0.0 mm 0.00 in0.0 mm
06:10 PM 92.4°F33.6°C 73.9°F23.3°C 55% 6.9 mph SSW11.1 kmh SSW 10.4 mph16.7 kmh 29.73 in1006.8 mb - 0.00 in0.0 mm 0.00 in0.0 mm
06:00 PM 92.7°F33.7°C 73.0°F22.8°C 53% 6.9 mph S11.1 kmh S 10.4 mph16.7 kmh 29.73 in1006.8 mb - 0.00 in0.0 mm 0.00 in0.0 mm
05:50 PM 92.6°F33.7°C 73.5°F23.1°C 54% 9.2 mph SSE14.8 kmh SSE 12.7 mph20.4 kmh 29.73 in1006.8 mb - 0.00 in0.0 mm 0.00 in0.0 mm
05:40 PM 92.6°F33.7°C 74.6°F23.7°C 56% 4.6 mph S7.4 kmh S 8.1 mph13.0 kmh 29.73 in1006.8 mb - 0.00 in0.0 mm 0.00 in0.0 mm
05:30 PM 93.5°F34.2°C 74.4°F23.6°C 54% 6.9 mph S11.1 kmh S 9.2 mph14.8 kmh 29.73 in1006.8 mb - 0.00 in0.0 mm 0.00 in0.0 mm
05:20 PM 94.1°F34.5°C 73.2°F22.9°C 51% 4.6 mph SW7.4 kmh SW 9.2 mph14.8 kmh 29.73 in1006.8 mb - 0.00 in0.0 mm 0.00 in0.0 mm
05:10 PM 93.8°F34.3°C 74.1°F23.4°C 53% 1.2 mph SW1.9 kmh SW 2.3 mph3.7 kmh 29.73 in1006.8 mb - 0.00 in0.0 mm 0.00 in0.0 mm
05:00 PM 93.6°F34.2°C 74.5°F23.6°C 54% 3.5 mph S5.6 kmh S 4.6 mph7.4 kmh 29.73 in1006.8 mb - 0.00 in0.0 mm 0.00 in0.0 mm
04:50 PM 93.5°F34.2°C 73.8°F23.2°C 53% 4.6 mph SW7.4 kmh SW 9.2 mph14.8 kmh 29.73 in1006.8 mb - 0.00 in0.0 mm 0.00 in0.0 mm
04:40 PM 93.9°F34.4°C 74.7°F23.7°C 54% 4.6 mph SW7.4 kmh SW 6.9 mph11.1 kmh 29.73 in1006.8 mb - 0.00 in0.0 mm 0.00 in0.0 mm
04:30 PM 93.3°F34.1°C 74.2°F23.4°C 54% 3.5 mph NW5.6 kmh NW 8.1 mph13.0 kmh 29.74 in1007.1 mb - 0.00 in0.0 mm 0.00 in0.0 mm
04:20 PM 93.1°F33.9°C 74.6°F23.7°C 55% 4.6 mph WSW7.4 kmh WSW 4.6 mph7.4 kmh 29.74 in1007.1 mb - 0.00 in0.0 mm 0.00 in0.0 mm
04:10 PM 93.5°F34.2°C 74.9°F23.8°C 55% 5.8 mph W9.3 kmh W 11.5 mph18.5 kmh 29.75 in1007.5 mb - 0.00 in0.0 mm 0.00 in0.0 mm
04:00 PM 93.2°F34.0°C 75.2°F24.0°C 56% 4.6 mph WSW7.4 kmh WSW 6.9 mph11.1 kmh 29.75 in1007.5 mb - 0.00 in0.0 mm 0.00 in0.0 mm
03:50 PM 92.7°F33.7°C 73.1°F22.8°C 53% 2.3 mph SSW3.7 kmh SSW 3.5 mph5.6 kmh 29.75 in1007.5 mb - 0.00 in0.0 mm 0.00 in0.0 mm
03:40 PM 92.1°F33.4°C 74.1°F23.4°C 56% 3.5 mph SW5.6 kmh SW 11.5 mph18.5 kmh 29.76 in1007.8 mb - 0.00 in0.0 mm 0.00 in0.0 mm
03:30 PM 92.1°F33.4°C 74.2°F23.4°C 56% 3.5 mph SW5.6 kmh SW 8.1 mph13.0 kmh 29.76 in1007.8 mb - 0.00 in0.0 mm 0.00 in0.0 mm
03:20 PM 92.0°F33.3°C 75.1°F23.9°C 58% 5.8 mph SSW9.3 kmh SSW 10.4 mph16.7 kmh 29.76 in1007.8 mb - 0.00 in0.0 mm 0.00 in0.0 mm
03:10 PM 92.7°F33.7°C 74.7°F23.7°C 56% 4.6 mph W7.4 kmh W 8.1 mph13.0 kmh 29.76 in1007.8 mb - 0.00 in0.0 mm 0.00 in0.0 mm
03:00 PM 92.3°F33.5°C 74.3°F23.5°C 56% 4.6 mph SW7.4 kmh SW 6.9 mph11.1 kmh 29.77 in1008.1 mb - 0.00 in0.0 mm 0.00 in0.0 mm
02:50 PM 90.7°F32.6°C 75.4°F24.1°C 61% 5.8 mph WSW9.3 kmh WSW 8.1 mph13.0 kmh 29.77 in1008.1 mb - 0.00 in0.0 mm 0.00 in0.0 mm
02:40 PM 90.0°F32.2°C 74.8°F23.8°C 61% 2.3 mph SW3.7 kmh SW 4.6 mph7.4 kmh 29.77 in1008.1 mb - 0.00 in0.0 mm 0.00 in0.0 mm
02:30 PM 90.1°F32.3°C 73.8°F23.2°C 59% 4.6 mph SSW7.4 kmh SSW 6.9 mph11.1 kmh 29.79 in1008.8 mb - 0.00 in0.0 mm 0.00 in0.0 mm
02:20 PM 90.4°F32.4°C 73.1°F22.8°C 57% 3.5 mph WSW5.6 kmh WSW 5.8 mph9.3 kmh 29.79 in1008.8 mb - 0.00 in0.0 mm 0.00 in0.0 mm
02:10 PM 90.9°F32.7°C 73.0°F22.8°C 56% 2.3 mph SW3.7 kmh SW 4.6 mph7.4 kmh 29.79 in1008.8 mb - 0.00 in0.0 mm 0.00 in0.0 mm
02:00 PM 90.4°F32.4°C 74.1°F23.4°C 59% 5.8 mph SSW9.3 kmh SSW 8.1 mph13.0 kmh 29.80 in1009.1 mb - 0.00 in0.0 mm 0.00 in0.0 mm
01:50 PM 90.4°F32.4°C 74.1°F23.4°C 59% 4.6 mph S7.4 kmh S 5.8 mph9.3 kmh 29.79 in1008.8 mb - 0.00 in0.0 mm 0.00 in0.0 mm
01:40 PM 89.1°F31.7°C 73.9°F23.3°C 61% 5.8 mph S9.3 kmh S 8.1 mph13.0 kmh 29.80 in1009.1 mb - 0.00 in0.0 mm 0.00 in0.0 mm
01:30 PM 88.9°F31.6°C 73.7°F23.2°C 61% 5.8 mph SSW9.3 kmh SSW 8.1 mph13.0 kmh 29.80 in1009.1 mb - 0.00 in0.0 mm 0.00 in0.0 mm
01:20 PM 88.7°F31.5°C 74.0°F23.3°C 62% 3.5 mph SW5.6 kmh SW 6.9 mph11.1 kmh 29.80 in1009.1 mb - 0.00 in0.0 mm 0.00 in0.0 mm
01:10 PM 88.5°F31.4°C 73.8°F23.2°C 62% 5.8 mph SW9.3 kmh SW 10.4 mph16.7 kmh 29.80 in1009.1 mb - 0.00 in0.0 mm 0.00 in0.0 mm
01:00 PM 88.2°F31.2°C 74.0°F23.3°C 63% 3.5 mph S5.6 kmh S 8.1 mph13.0 kmh 29.81 in1009.5 mb - 0.00 in0.0 mm 0.00 in0.0 mm
12:50 PM 87.9°F31.1°C 73.7°F23.2°C 63% 3.5 mph S5.6 kmh S 10.4 mph16.7 kmh 29.81 in1009.5 mb - 0.00 in0.0 mm 0.00 in0.0 mm
12:40 PM 87.6°F30.9°C 73.4°F23.0°C 63% 5.8 mph SSW9.3 kmh SSW 8.1 mph13.0 kmh 29.81 in1009.5 mb - 0.00 in0.0 mm 0.00 in0.0 mm
12:30 PM 87.2°F30.7°C 74.0°F23.3°C 65% 5.8 mph S9.3 kmh S 8.1 mph13.0 kmh 29.81 in1009.5 mb - 0.00 in0.0 mm 0.00 in0.0 mm
12:20 PM 86.7°F30.4°C 73.1°F22.8°C 64% 4.6 mph S7.4 kmh S 9.2 mph14.8 kmh 29.81 in1009.5 mb - 0.00 in0.0 mm 0.00 in0.0 mm
12:10 PM 86.3°F30.2°C 74.0°F23.3°C 67% 3.5 mph S5.6 kmh S 5.8 mph9.3 kmh 29.81 in1009.5 mb - 0.00 in0.0 mm 0.00 in0.0 mm
12:00 PM 85.9°F29.9°C 73.6°F23.1°C 67% 8.1 mph S13.0 kmh S 13.8 mph22.2 kmh 29.81 in1009.5 mb - 0.00 in0.0 mm 0.00 in0.0 mm
11:50 AM 85.3°F29.6°C 73.1°F22.8°C 67% 5.8 mph S9.3 kmh S 9.2 mph14.8 kmh 29.81 in1009.5 mb - 0.00 in0.0 mm 0.00 in0.0 mm
11:40 AM 85.0°F29.4°C 72.8°F22.7°C 67% 8.1 mph SSE13.0 kmh SSE 9.2 mph14.8 kmh 29.81 in1009.5 mb - 0.00 in0.0 mm 0.00 in0.0 mm
11:30 AM 84.7°F29.3°C 72.9°F22.7°C 68% 4.6 mph S7.4 kmh S 8.1 mph13.0 kmh 29.81 in1009.5 mb - 0.00 in0.0 mm 0.00 in0.0 mm
11:20 AM 84.3°F29.1°C 73.4°F23.0°C 70% 5.8 mph SSE9.3 kmh SSE 10.4 mph16.7 kmh 29.81 in1009.5 mb - 0.00 in0.0 mm 0.00 in0.0 mm
11:10 AM 84.0°F28.9°C 72.7°F22.6°C 69% 8.1 mph S13.0 kmh S 11.5 mph18.5 kmh 29.81 in1009.5 mb - 0.00 in0.0 mm 0.00 in0.0 mm
11:00 AM 83.9°F28.8°C 72.6°F22.6°C 69% 9.2 mph SSE14.8 kmh SSE 12.7 mph20.4 kmh 29.81 in1009.5 mb - 0.00 in0.0 mm 0.00 in0.0 mm
10:50 AM 83.8°F28.8°C 72.5°F22.5°C 69% 6.9 mph S11.1 kmh S 11.5 mph18.5 kmh 29.81 in1009.5 mb - 0.00 in0.0 mm 0.00 in0.0 mm
10:40 AM 83.6°F28.7°C 72.8°F22.7°C 70% 8.1 mph S13.0 kmh S 11.5 mph18.5 kmh 29.81 in1009.5 mb - 0.00 in0.0 mm 0.00 in0.0 mm
10:30 AM 83.5°F28.6°C 72.7°F22.6°C 70% 6.9 mph SSE11.1 kmh SSE 10.4 mph16.7 kmh 29.81 in1009.5 mb - 0.00 in0.0 mm 0.00 in0.0 mm
10:20 AM 83.2°F28.4°C 72.4°F22.4°C 70% 6.9 mph S11.1 kmh S 11.5 mph18.5 kmh 29.80 in1009.1 mb - 0.00 in0.0 mm 0.00 in0.0 mm
10:10 AM 83.0°F28.3°C 73.0°F22.8°C 72% 5.8 mph SSE9.3 kmh SSE 9.2 mph14.8 kmh 29.80 in1009.1 mb - 0.00 in0.0 mm 0.00 in0.0 mm
10:00 AM 82.9°F28.3°C 72.9°F22.7°C 72% 5.8 mph SSE9.3 kmh SSE 10.4 mph16.7 kmh 29.80 in1009.1 mb - 0.00 in0.0 mm 0.00 in0.0 mm
09:50 AM 82.7°F28.2°C 72.7°F22.6°C 72% 4.6 mph SE7.4 kmh SE 6.9 mph11.1 kmh 29.80 in1009.1 mb - 0.00 in0.0 mm 0.00 in0.0 mm
09:40 AM 82.5°F28.1°C 72.6°F22.6°C 72% 8.1 mph S13.0 kmh S 9.2 mph14.8 kmh 29.80 in1009.1 mb - 0.00 in0.0 mm 0.00 in0.0 mm
09:30 AM 82.3°F27.9°C 72.8°F22.7°C 73% 6.9 mph S11.1 kmh S 9.2 mph14.8 kmh 29.80 in1009.1 mb - 0.00 in0.0 mm 0.00 in0.0 mm
09:20 AM 82.0°F27.8°C 72.9°F22.7°C 74% 3.5 mph S5.6 kmh S 5.8 mph9.3 kmh 29.81 in1009.5 mb - 0.00 in0.0 mm 0.00 in0.0 mm
09:10 AM 81.4°F27.4°C 73.1°F22.8°C 76% 4.6 mph S7.4 kmh S 5.8 mph9.3 kmh 29.81 in1009.5 mb - 0.00 in0.0 mm 0.00 in0.0 mm
09:00 AM 80.9°F27.2°C 72.6°F22.6°C 76% 5.8 mph SSW9.3 kmh SSW 8.1 mph13.0 kmh 29.82 in1009.8 mb - 0.00 in0.0 mm 0.00 in0.0 mm
08:50 AM 80.5°F26.9°C 73.0°F22.8°C 78% 3.5 mph SW5.6 kmh SW 5.8 mph9.3 kmh 29.82 in1009.8 mb - 0.00 in0.0 mm 0.00 in0.0 mm
08:40 AM 79.7°F26.5°C 72.6°F22.6°C 79% 5.8 mph SW9.3 kmh SW 10.4 mph16.7 kmh 29.82 in1009.8 mb - 0.00 in0.0 mm 0.00 in0.0 mm
08:30 AM 78.7°F25.9°C 72.0°F22.2°C 80% 4.6 mph SSW7.4 kmh SSW 8.1 mph13.0 kmh 29.82 in1009.8 mb - 0.00 in0.0 mm 0.00 in0.0 mm
08:20 AM 78.0°F25.6°C 71.7°F22.1°C 81% 5.8 mph SSW9.3 kmh SSW 9.2 mph14.8 kmh 29.81 in1009.5 mb - 0.00 in0.0 mm 0.00 in0.0 mm
08:10 AM 77.6°F25.3°C 72.0°F22.2°C 83% 5.8 mph S9.3 kmh S 6.9 mph11.1 kmh 29.81 in1009.5 mb - 0.00 in0.0 mm 0.00 in0.0 mm
08:00 AM 77.1°F25.1°C 71.9°F22.2°C 84% 4.6 mph WSW7.4 kmh WSW 8.1 mph13.0 kmh 29.81 in1009.5 mb - 0.00 in0.0 mm 0.00 in0.0 mm
07:50 AM 76.8°F24.9°C 71.9°F22.2°C 85% 5.8 mph S9.3 kmh S 8.1 mph13.0 kmh 29.79 in1008.8 mb - 0.00 in0.0 mm 0.00 in0.0 mm
07:40 AM 76.6°F24.8°C 72.1°F22.3°C 86% 6.9 mph S11.1 kmh S 8.1 mph13.0 kmh 29.79 in1008.8 mb - 0.00 in0.0 mm 0.00 in0.0 mm
07:30 AM 76.3°F24.6°C 72.1°F22.3°C 87% 6.9 mph S11.1 kmh S 10.4 mph16.7 kmh 29.78 in1008.5 mb - 0.00 in0.0 mm 0.00 in0.0 mm
07:20 AM 76.0°F24.4°C 72.2°F22.3°C 88% 5.8 mph SSE9.3 kmh SSE 9.2 mph14.8 kmh 29.77 in1008.1 mb - 0.00 in0.0 mm 0.00 in0.0 mm
07:10 AM 75.9°F24.4°C 72.1°F22.3°C 88% 5.8 mph S9.3 kmh S 6.9 mph11.1 kmh 29.77 in1008.1 mb - 0.00 in0.0 mm 0.00 in0.0 mm
07:00 AM 75.9°F24.4°C 72.4°F22.4°C 89% 5.8 mph S9.3 kmh S 8.1 mph13.0 kmh 29.78 in1008.5 mb - 0.00 in0.0 mm 0.00 in0.0 mm
06:50 AM 75.9°F24.4°C 72.4°F22.4°C 89% 4.6 mph S7.4 kmh S 5.8 mph9.3 kmh 29.77 in1008.1 mb - 0.00 in0.0 mm 0.00 in0.0 mm
06:40 AM 75.9°F24.4°C 72.4°F22.4°C 89% 4.6 mph SSE7.4 kmh SSE 6.9 mph11.1 kmh 29.78 in1008.5 mb - 0.00 in0.0 mm 0.00 in0.0 mm
06:30 AM 75.8°F24.3°C 72.7°F22.6°C 90% 5.8 mph SSE9.3 kmh SSE 8.1 mph13.0 kmh 29.77 in1008.1 mb - 0.00 in0.0 mm 0.00 in0.0 mm
06:20 AM 75.8°F24.3°C 72.7°F22.6°C 90% 5.8 mph SE9.3 kmh SE 8.1 mph13.0 kmh 29.77 in1008.1 mb - 0.00 in0.0 mm 0.00 in0.0 mm
06:10 AM 75.7°F24.3°C 72.6°F22.6°C 90% 5.8 mph S9.3 kmh S 6.9 mph11.1 kmh 29.78 in1008.5 mb - 0.00 in0.0 mm 0.00 in0.0 mm
06:00 AM 75.6°F24.2°C 72.5°F22.5°C 90% 5.8 mph SSE9.3 kmh SSE 8.1 mph13.0 kmh 29.77 in1008.1 mb - 0.00 in0.0 mm 0.00 in0.0 mm
05:50 AM 75.6°F24.2°C 72.8°F22.7°C 91% 5.8 mph SE9.3 kmh SE 9.2 mph14.8 kmh 29.77 in1008.1 mb - 0.00 in0.0 mm 0.00 in0.0 mm
05:40 AM 75.5°F24.2°C 72.7°F22.6°C 91% 3.5 mph SE5.6 kmh SE 5.8 mph9.3 kmh 29.77 in1008.1 mb - 0.00 in0.0 mm 0.00 in0.0 mm
05:30 AM 75.5°F24.2°C 72.7°F22.6°C 91% 4.6 mph SE7.4 kmh SE 4.6 mph7.4 kmh 29.77 in1008.1 mb - 0.00 in0.0 mm 0.00 in0.0 mm
05:20 AM 75.5°F24.2°C 72.7°F22.6°C 91% 4.6 mph SE7.4 kmh SE 4.6 mph7.4 kmh 29.77 in1008.1 mb - 0.00 in0.0 mm 0.00 in0.0 mm
05:10 AM 75.5°F24.2°C 72.7°F22.6°C 91% 4.6 mph SE7.4 kmh SE 5.8 mph9.3 kmh 29.77 in1008.1 mb - 0.00 in0.0 mm 0.00 in0.0 mm
05:00 AM 75.5°F24.2°C 72.7°F22.6°C 91% 4.6 mph SE7.4 kmh SE 5.8 mph9.3 kmh 29.77 in1008.1 mb - 0.00 in0.0 mm 0.00 in0.0 mm
04:50 AM 75.5°F24.2°C 72.7°F22.6°C 91% 4.6 mph SE7.4 kmh SE 5.8 mph9.3 kmh 29.77 in1008.1 mb - 0.00 in0.0 mm 0.00 in0.0 mm
04:40 AM 75.5°F24.2°C 72.7°F22.6°C 91% 2.3 mph SE3.7 kmh SE 3.5 mph5.6 kmh 29.77 in1008.1 mb - 0.00 in0.0 mm 0.00 in0.0 mm
04:30 AM 75.6°F24.2°C 72.8°F22.7°C 91% 3.5 mph SE5.6 kmh SE 4.6 mph7.4 kmh 29.77 in1008.1 mb - 0.00 in0.0 mm 0.00 in0.0 mm
04:20 AM 75.6°F24.2°C 72.8°F22.7°C 91% 4.6 mph SE7.4 kmh SE 6.9 mph11.1 kmh 29.77 in1008.1 mb - 0.00 in0.0 mm 0.00 in0.0 mm
04:10 AM 75.6°F24.2°C 72.8°F22.7°C 91% 4.6 mph SE7.4 kmh SE 5.8 mph9.3 kmh 29.77 in1008.1 mb - 0.00 in0.0 mm 0.00 in0.0 mm
04:00 AM 75.5°F24.2°C 72.7°F22.6°C 91% 3.5 mph SE5.6 kmh SE 8.1 mph13.0 kmh 29.77 in1008.1 mb - 0.00 in0.0 mm 0.00 in0.0 mm
03:50 AM 75.5°F24.2°C 72.7°F22.6°C 91% 3.5 mph SE5.6 kmh SE 6.9 mph11.1 kmh 29.76 in1007.8 mb - 0.00 in0.0 mm 0.00 in0.0 mm
03:40 AM 75.5°F24.2°C 72.7°F22.6°C 91% 4.6 mph SE7.4 kmh SE 8.1 mph13.0 kmh 29.76 in1007.8 mb - 0.00 in0.0 mm 0.00 in0.0 mm
03:30 AM 75.5°F24.2°C 72.7°F22.6°C 91% 4.6 mph SE7.4 kmh SE 5.8 mph9.3 kmh 29.76 in1007.8 mb - 0.00 in0.0 mm 0.00 in0.0 mm
03:20 AM 75.4°F24.1°C 72.6°F22.6°C 91% 3.5 mph SE5.6 kmh SE 6.9 mph11.1 kmh 29.77 in1008.1 mb - 0.00 in0.0 mm 0.00 in0.0 mm
03:10 AM 75.4°F24.1°C 72.6°F22.6°C 91% 4.6 mph SE7.4 kmh SE 6.9 mph11.1 kmh 29.76 in1007.8 mb - 0.00 in0.0 mm 0.00 in0.0 mm
03:00 AM 75.3°F24.1°C 72.5°F22.5°C 91% 4.6 mph SE7.4 kmh SE 5.8 mph9.3 kmh 29.77 in1008.1 mb - 0.00 in0.0 mm 0.00 in0.0 mm
02:50 AM 75.2°F24.0°C 72.4°F22.4°C 91% 5.8 mph SE9.3 kmh SE 8.1 mph13.0 kmh 29.77 in1008.1 mb - 0.00 in0.0 mm 0.00 in0.0 mm
02:40 AM 75.1°F23.9°C 72.3°F22.4°C 91% 5.8 mph SE9.3 kmh SE 6.9 mph11.1 kmh 29.77 in1008.1 mb - 0.00 in0.0 mm 0.00 in0.0 mm
02:30 AM 74.9°F23.8°C 72.1°F22.3°C 91% 4.6 mph ESE7.4 kmh ESE 8.1 mph13.0 kmh 29.77 in1008.1 mb - 0.00 in0.0 mm 0.00 in0.0 mm
02:20 AM 74.8°F23.8°C 72.0°F22.2°C 91% 4.6 mph SE7.4 kmh SE 8.1 mph13.0 kmh 29.77 in1008.1 mb - 0.00 in0.0 mm 0.00 in0.0 mm
02:10 AM 74.7°F23.7°C 71.9°F22.2°C 91% 5.8 mph ESE9.3 kmh ESE 9.2 mph14.8 kmh 29.77 in1008.1 mb - 0.00 in0.0 mm 0.00 in0.0 mm
02:00 AM 74.7°F23.7°C 71.9°F22.2°C 91% 5.8 mph ESE9.3 kmh ESE 6.9 mph11.1 kmh 29.77 in1008.1 mb - 0.00 in0.0 mm 0.00 in0.0 mm
01:50 AM 74.6°F23.7°C 71.8°F22.1°C 91% 2.3 mph E3.7 kmh E 3.5 mph5.6 kmh 29.77 in1008.1 mb - 0.00 in0.0 mm 0.00 in0.0 mm
01:40 AM 74.3°F23.5°C 71.5°F21.9°C 91% 3.5 mph E5.6 kmh E 4.6 mph7.4 kmh 29.77 in1008.1 mb - 0.00 in0.0 mm 0.00 in0.0 mm
01:30 AM 74.0°F23.3°C 71.2°F21.8°C 91% 4.6 mph ESE7.4 kmh ESE 4.6 mph7.4 kmh 29.77 in1008.1 mb - 0.00 in0.0 mm 0.00 in0.0 mm
01:20 AM 74.0°F23.3°C 71.2°F21.8°C 91% 2.3 mph E3.7 kmh E 3.5 mph5.6 kmh 29.77 in1008.1 mb - 0.00 in0.0 mm 0.00 in0.0 mm
01:10 AM 73.9°F23.3°C 71.1°F21.7°C 91% 2.3 mph E3.7 kmh E 3.5 mph5.6 kmh 29.77 in1008.1 mb - 0.00 in0.0 mm 0.00 in0.0 mm
01:00 AM 73.8°F23.2°C 70.7°F21.5°C 90% 1.2 mph NE1.9 kmh NE 2.3 mph3.7 kmh 29.78 in1008.5 mb - 0.00 in0.0 mm 0.00 in0.0 mm
12:50 AM 73.7°F23.2°C 70.9°F21.6°C 91% 1.2 mph NE1.9 kmh NE 2.3 mph3.7 kmh 29.78 in1008.5 mb - 0.00 in0.0 mm 0.00 in0.0 mm
12:40 AM 73.6°F23.1°C 70.5°F21.4°C 90% 2.3 mph NNE3.7 kmh NNE 3.5 mph5.6 kmh 29.79 in1008.8 mb - 0.00 in0.0 mm 0.00 in0.0 mm
12:30 AM 73.5°F23.1°C 70.4°F21.3°C 90% 1.2 mph NE1.9 kmh NE 2.3 mph3.7 kmh 29.79 in1008.8 mb - 0.00 in0.0 mm 0.00 in0.0 mm
12:20 AM 73.5°F23.1°C 70.4°F21.3°C 90% 2.3 mph NE3.7 kmh NE 3.5 mph5.6 kmh 29.80 in1009.1 mb - 0.00 in0.0 mm 0.00 in0.0 mm
12:10 AM 73.3°F22.9°C 70.2°F21.2°C 90% 1.2 mph NE1.9 kmh NE 2.3 mph3.7 kmh 29.80 in1009.1 mb - 0.00 in0.0 mm 0.00 in0.0 mm
12:00 AM 73.2°F22.9°C 70.1°F21.2°C 90% 1.2 mph E1.9 kmh E 2.3 mph3.7 kmh 29.80 in1009.1 mb - 0.00 in0.0 mm 0.00 in0.0 mm